Irkutsk Airport

Airport
ICAO code: 
UIII
IATA Code: 
IKT
Summary
ICAO Region: 
APAC
Territory: 
Location: 
Irkutsk, Russia,
Serving: 
Irkutsk
Elevation: 
1675 ft
Coordinates: 
Aerial View: 
52° 16' 5" N, 104° 23' 20" E
Metar
Observation
UIII 050830Z 00000MPS CAVOK M04/M10 Q1026 R30/850550 NOSIG RMK QFE724/0966
Station
Irkutsk
Date/Time
2021-12-05 08:30:00
Wind direction
Lowest cloud amount
clouds and visibility OK
Temperature
-4°C
Dew point
-10°C
Humidity
62%
QNH
1026 hPa
Weather condition
n/a

Description

International and domestic airport serving the Russian city of Irkutsk.

Climatology

Cool continental climate/Subarctic climate (Köppen climate classification Dwc)

Runways

Designator Length Width Surface Rops
12/30 3165 45 CON Yes/Yes
Airport map: 
Aerial View: 

Accidents and Serious Incidents at or in the vicinity of UIII

SKYbrary Partners:

Safety knowledge contributed by: